• Join FlightAware (Why Join?)
  • Login
  • US Flag 
06:09PM EDT


 

Airport Tracker/Info


-or-


 

Live Flight TrackerFlight Track Log ✈ AVN51 ✈ 12-Feb-2014 ✈ NZAA / AKL - NVVV / VLI

Flight Track Log - Related Links

Times and Time Zones

All times are in EST time to prevent confusion due to time zone crossing. See the AVN51 flight status page for this flight to view local times or setup timezone preferences in your user account.

Time Position Orientation Groundspeed Altitude Reporting Facility
EST Latitude Longitude Course Direction KTS MPH feet Rate Location/Type
07:13PM -37.0167 174.7667 342° North 118 136  Level New Zealand
07:14PM -36.9144 174.7532 342° North  Level Estimated
07:14PM -37.0333 174.7167 247° West 195 224  Level New Zealand
07:15PM -37.0333 174.6333 270° West 242 278 3,240 Level New Zealand
07:16PM -36.9750 174.6170 270° West 280 322 6,000 5,640 Climbing FlightAware ADS-B
07:16PM -36.9530 174.6070 340° North 293 337 6,400 1,140 Climbing FlightAware ADS-B
07:17PM -36.9290 174.5960 340° North 312 359 6,700 1,200 Climbing FlightAware ADS-B
07:17PM -36.9040 174.5850 341° North 328 377 7,100 1,740 Climbing FlightAware ADS-B
07:17PM -36.8810 174.5760 343° North 334 384 7,700 2,160 Climbing FlightAware ADS-B
07:17PM -36.8729 174.5721 339° North 337 388 7,900 2,100 Climbing FlightAware ADS-B
07:18PM -36.8520 174.5630 341° North 344 396 8,400 2,160 Climbing FlightAware ADS-B
07:18PM -36.8434 174.5601 345° North 344 396 8,600 2,280 Climbing FlightAware ADS-B
07:18PM -36.8114 174.5472 342° North 351 404 9,400 2,040 Climbing FlightAware ADS-B
07:18PM -36.8050 174.5440 338° Northwest 353 406 9,500 2,280 Climbing FlightAware ADS-B
07:19PM -36.7501 174.5223 342° North 361 415 10,900 2,460 Climbing FlightAware ADS-B
07:19PM -36.7350 174.5160 342° North 363 418 11,300 2,100 Climbing FlightAware ADS-B
07:19PM -36.6845 174.4954 342° North 375 432 12,300 1,860 Climbing FlightAware ADS-B
07:19PM -36.6800 174.4940 346° North 377 434 12,400 2,520 Climbing FlightAware ADS-B
07:20PM -36.6300 174.4730 341° North 380 437 13,700 2,640 Climbing FlightAware ADS-B
07:20PM -36.6250 174.4711 343° North 382 440 14,000 2,280 Climbing FlightAware ADS-B
07:20PM -36.5790 174.4520 342° North 389 448 14,900 2,400 Climbing FlightAware ADS-B
07:21PM -36.5494 174.4403 342° North 392 451 15,600 2,460 Climbing FlightAware ADS-B
07:21PM -36.5270 174.4310 342° North 395 455 16,100 2,460 Climbing FlightAware ADS-B
07:21PM -36.4740 174.4100 342° North 399 459 17,400 2,520 Climbing FlightAware ADS-B
07:22PM -36.4522 174.4008 341° North 400 460 18,000 2,280 Climbing FlightAware ADS-B
07:22PM -36.3863 174.3739 342° North 410 472 19,500 2,220 Climbing FlightAware ADS-B
07:23PM -36.3440 174.3570 342° North 414 476 20,200 2,040 Climbing FlightAware ADS-B
07:23PM -36.2994 174.3387 342° North 420 483 21,000 1,860 Climbing FlightAware ADS-B
07:24PM -36.1941 174.2961 342° North 434 499 22,900 1,860 Climbing FlightAware ADS-B
07:25PM -36.1333 174.2667 342° North 437 503 -45,840 Descending New Zealand
07:26PM -36.0000 174.2167 343° North 450 518  Level New Zealand
07:27PM -35.8833 174.1667 341° North 456 525  Level New Zealand
07:28PM -35.7667 174.1167 341° North 462 532  Level New Zealand
07:29PM -35.6333 174.0667 343° North 461 531  Level New Zealand
07:30PM -35.5167 174.0167 341° North 461 531  Level New Zealand
07:31PM -35.3833 173.9667 343° North 465 535  Level New Zealand
07:32PM -35.2667 173.9167 341° North 467 537  Level New Zealand
07:33PM -35.1333 173.8667 343° North 469 540  Level New Zealand
07:34PM -35.0000 173.8167 343° North 473 544  Level New Zealand
07:35PM -34.8833 173.7667 341° North 473 544  Level New Zealand
07:36PM -34.7500 173.7167 343° North 473 544  Level New Zealand
07:37PM -34.6167 173.6667 343° North 470 541  Level New Zealand
07:38PM -34.5000 173.6167 341° North 469 540  Level New Zealand
07:39PM -34.3667 173.5667 343° North 471 542  Level New Zealand
07:40PM -34.2333 173.5167 343° North 468 539  Level New Zealand
07:41PM -34.1167 173.4667 340° North 469 540  Level New Zealand
07:42PM -33.9833 173.4333 348° North 468 539  Level New Zealand
07:43PM -33.8500 173.3833 343° North 469 540  Level New Zealand
07:44PM -33.7500 173.3500 345° North 463 533  Level New Zealand
07:45PM -33.6000 173.2833 340° North 469 540  Level New Zealand
07:46PM -33.4667 173.2333 343° North 468 539  Level New Zealand
07:47PM -33.3500 173.1833 340° North 468 539  Level New Zealand
07:48PM -33.2167 173.1500 348° North 467 537  Level New Zealand
07:49PM -33.0833 173.1000 343° North 466 536  Level New Zealand
07:52PM -32.7667 172.9833 343° North 463 533  Level New Zealand
07:54PM -32.5167 172.9000 344° North 463 533  Level New Zealand
07:56PM -32.2667 172.8000 341° North 463 533  Level New Zealand
07:58PM -32.0333 172.7167 343° North 463 533  Level New Zealand
08:00PM -31.7833 172.6333 344° North 463 533  Level New Zealand
08:02PM -31.5333 172.5333 341° North 463 533  Level New Zealand
08:04PM -31.2833 172.4500 344° North 463 533  Level New Zealand
08:06PM -31.0333 172.3667 344° North 463 533  Level New Zealand
08:08PM -30.8000 172.2833 343° North 463 533  Level New Zealand
08:10PM -30.5500 172.2000 344° North 463 533  Level New Zealand
08:12PM -30.3000 172.1167 344° North 463 533  Level New Zealand
08:14PM -30.0500 172.0333 344° North 463 533  Level New Zealand
08:16PM -29.8000 171.9500 344° North 463 533  Level New Zealand
08:18PM -29.5500 171.8667 344° North 439 505  Level New Zealand
08:20PM -29.3167 171.7833 343° North 439 505  Level New Zealand
08:22PM -29.1833 171.7333 342° North 462 532  Level New Zealand
08:24PM -28.9333 171.6500 344° North 462 532  Level New Zealand
08:26PM -28.7000 171.5667 343° North 462 532  Level New Zealand
08:28PM -28.4500 171.4833 344° North 462 532  Level New Zealand
08:30PM -28.2000 171.4000 344° North 462 532  Level New Zealand
08:32PM -27.9500 171.3333 347° North 462 532  Level New Zealand
08:34PM -27.7000 171.2500 344° North 462 532  Level New Zealand
08:36PM -27.4500 171.1667 344° North 462 532  Level New Zealand
08:38PM -27.2000 171.0833 343° North 462 532  Level New Zealand
08:40PM -26.9667 171.0000 342° North 462 532  Level New Zealand
08:42PM -26.7167 170.9333 347° North 462 532  Level New Zealand
08:44PM -26.4667 170.8500 343° North 462 532  Level New Zealand
08:46PM -26.2167 170.7667 343° North 462 532  Level New Zealand
08:48PM -25.9667 170.6833 343° North 462 532  Level New Zealand
08:50PM -25.7860 170.6306 345° North  Level FlightAware Approximate
08:57PM -25.1531 170.4261 344° North  Level FlightAware Approximate
08:58PM -25.0628 170.3967 344° North  Level FlightAware Approximate
08:59PM -24.9724 170.3674 344° North  Level FlightAware Approximate
09:00PM -24.8821 170.3382 344° North  Level FlightAware Approximate
09:01PM -24.7917 170.3090 344° North  Level FlightAware Approximate
09:02PM -24.7013 170.2798 344° North  Level FlightAware Approximate
09:03PM -24.6109 170.2507 344° North  Level FlightAware Approximate
09:04PM -24.5205 170.2216 344° North  Level FlightAware Approximate
09:05PM -24.4301 170.1926 344° North  Level FlightAware Approximate
09:06PM -24.3398 170.1636 344° North  Level FlightAware Approximate
09:07PM -24.2493 170.1347 344° North  Level FlightAware Approximate
09:08PM -24.1589 170.1058 344° North  Level FlightAware Approximate
09:09PM -24.0685 170.0769 344° North  Level FlightAware Approximate
09:10PM -23.9781 170.0481 344° North  Level FlightAware Approximate
09:11PM -23.8877 170.0193 344° North  Level FlightAware Approximate
09:12PM -23.7972 169.9905 344° North  Level FlightAware Approximate
09:13PM -23.7068 169.9618 344° North  Level FlightAware Approximate
09:14PM -23.6164 169.9331 344° North  Level FlightAware Approximate
09:15PM -23.5259 169.9045 344° North  Level FlightAware Approximate
09:16PM -23.4355 169.8759 344° North  Level FlightAware Approximate
09:17PM -23.3450 169.8474 344° North  Level FlightAware Approximate
09:18PM -23.2545 169.8189 344° North  Level FlightAware Approximate
09:19PM -23.1641 169.7904 344° North  Level FlightAware Approximate
09:20PM -23.0736 169.7619 344° North  Level FlightAware Approximate
09:21PM -22.9831 169.7336 344° North  Level FlightAware Approximate
09:22PM -22.8926 169.7052 344° North  Level FlightAware Approximate
09:23PM -22.8022 169.6769 344° North  Level FlightAware Approximate
09:24PM -22.7117 169.6486 344° North  Level FlightAware Approximate
09:25PM -22.6212 169.6203 344° North  Level FlightAware Approximate
09:26PM -22.5307 169.5921 344° North  Level FlightAware Approximate
09:27PM -22.4401 169.5640 344° North  Level FlightAware Approximate
09:28PM -22.3496 169.5358 344° North  Level FlightAware Approximate
09:29PM -22.2591 169.5077 344° North  Level FlightAware Approximate
09:30PM -22.1686 169.4797 344° North  Level FlightAware Approximate
09:31PM -22.0781 169.4516 344° North  Level FlightAware Approximate
09:32PM -21.9875 169.4236 344° North  Level FlightAware Approximate
09:33PM -21.8970 169.3957 344° North  Level FlightAware Approximate
09:34PM -21.8065 169.3678 344° North  Level FlightAware Approximate
09:35PM -21.7159 169.3399 344° North  Level FlightAware Approximate
09:36PM -21.6254 169.3120 344° North  Level FlightAware Approximate
09:37PM -21.5348 169.2842 344° North  Level FlightAware Approximate
09:38PM -21.4442 169.2565 344° North  Level FlightAware Approximate
09:39PM -21.3537 169.2287 344° North  Level FlightAware Approximate
09:40PM -21.2631 169.2010 344° North  Level FlightAware Approximate
09:41PM -21.1725 169.1733 344° North  Level FlightAware Approximate
09:42PM -21.0820 169.1457 344° North  Level FlightAware Approximate
09:43PM -20.9914 169.1181 344° North  Level FlightAware Approximate
09:44PM -20.9008 169.0905 344° North  Level FlightAware Approximate
09:45PM -20.8102 169.0629 344° North  Level FlightAware Approximate
09:46PM -20.7196 169.0354 344° North  Level FlightAware Approximate
09:47PM -20.6290 169.0080 344° North  Level FlightAware Approximate
09:48PM -20.5384 168.9805 344° North  Level FlightAware Approximate
09:49PM -20.4478 168.9531 344° North  Level FlightAware Approximate
09:50PM -20.3572 168.9257 344° North  Level FlightAware Approximate
09:51PM -20.2666 168.8984 344° North  Level FlightAware Approximate
09:52PM -20.1759 168.8711 344° North  Level FlightAware Approximate
09:53PM -20.0853 168.8438 344° North  Level FlightAware Approximate
09:54PM -19.9947 168.8165 344° North  Level FlightAware Approximate
09:55PM -19.9041 168.7893 344° North  Level FlightAware Approximate
09:56PM -19.8134 168.7621 344° North  Level FlightAware Approximate
09:57PM -19.7228 168.7350 344° North  Level FlightAware Approximate
09:58PM -19.6321 168.7078 344° North  Level FlightAware Approximate
09:59PM -19.5415 168.6807 344° North  Level FlightAware Approximate
10:00PM -19.4508 168.6537 344° North  Level FlightAware Approximate
10:01PM -19.3601 168.6266 344° North  Level FlightAware Approximate
10:02PM -19.2686 168.6035 348° North  Level FlightAware Approximate
10:03PM -19.1765 168.5827 348° North  Level FlightAware Approximate
10:04PM -19.0844 168.5619 348° North  Level FlightAware Approximate
10:05PM -18.9923 168.5412 348° North  Level FlightAware Approximate
10:06PM -18.9002 168.5204 348° North  Level FlightAware Approximate
10:07PM -18.8080 168.4997 348° North  Level FlightAware Approximate
10:08PM -18.7159 168.4790 348° North  Level FlightAware Approximate
10:09PM -18.6238 168.4584 348° North  Level FlightAware Approximate
10:10PM -18.5317 168.4377 348° North  Level FlightAware Approximate
10:11PM -18.4396 168.4171 348° North  Level FlightAware Approximate
10:12PM -18.3474 168.3965 348° North  Level FlightAware Approximate
10:13PM -18.2553 168.3759 348° North  Level FlightAware Approximate
10:14PM -18.1632 168.3554 348° North  Level FlightAware Approximate
10:15PM -18.0710 168.3348 348° North  Level FlightAware Approximate
10:16PM -17.9789 168.3143 348° North  Level FlightAware Approximate
10:17PM -17.8868 168.2938 348° North  Level FlightAware Approximate
10:18PM -17.7946 168.2733 348° North  Level FlightAware Approximate
10:19PM -17.7025 168.2529 348° North  Level FlightAware Approximate
10:20PM -17.6621 168.2439 348° North  Level FlightAware Approximate
10:21PM -17.6993 168.3198 348° North  Level Estimated
10:22PM -17.6993 168.3198 348° North  Level Estimated
10:23PM -17.6993 168.3198 348° North  Level Estimated
10:24PM -17.6993 168.3198 348° North  Level Estimated
10:25PM -17.6993 168.3198 348° North  Level Estimated
10:26PM -17.6993 168.3198 348° North  Level Estimated
10:27PM -17.6993 168.3198 348° North  Level Estimated
10:28PM -17.6993 168.3198 348° North  Level Estimated